Here is the Quick Look data you requested

The Data originates at the National Weather Service, and is made available here by the UAlbany Department of Atmospheric and Environmental Sciences

Surface Observations

KESN 241150Z 30010G17KT 10SM FEW150 BKN250 22/14 A2985=
KESN 241250Z 31015G20KT 10SM BKN250 22/13 A2987=
KESN 241350Z 33010G26KT 10SM BKN200 20/12 A2990=
KESN 241350Z COR 33010G16KT 10SM BKN200 20/12 A2990=
KESN 241449Z 30016G21KT 10SM BKN100 20/10 A2990=
KESN 241545Z 33016G21KT 10SM BKN100 21/06 A2990=
KESN 241650Z 30008G16KT 10SM SCT150 22/06 A2990=
KESN 241745Z 31012G15KT 10SM SCT150 23/06 A2989=
KESN 241845Z 29008KT 10SM SCT150 23/06 A2989=
KESN 241950Z 24005G14KT 10SM SCT100 23/04 A2987=
KESN 242050Z 29008KT 10SM SCT100 23/04 A2987=
KESN 242150Z 31003KT 10SM SCT100 23/04 A2988=
KESN 242250Z 36004KT 10SM SCT080 23/04 A2987=
KESN 242357Z 00000KT 10SM SCT070 19/06 A2988=
KESN 250058Z 00000KT 10SM SCT070 18/07 A2990=
KESN 250150Z 00000KT 10SM SCT070 16/08 A2991=
KESN 250218Z AUTO 00000KT 10SM CLR 17/08 A2991 RMK AO2 T01650077=
KESN 250238Z AUTO 00000KT 10SM CLR 16/08 A2992 RMK AO2 T01600077=
KESN 250258Z AUTO 00000KT 10SM CLR 15/08 A2992 RMK AO2 T01530081=
KESN 250318Z AUTO 00000KT 10SM CLR 15/09 A2992 RMK AO2 T01460091=
KESN 250338Z AUTO 00000KT 10SM CLR 15/10 A2993 RMK AO2 T01470095=
KESN 250358Z AUTO 00000KT 10SM CLR 15/09 A2993 RMK AO2 T01450086=
KESN 250418Z AUTO 00000KT 10SM CLR 15/09 A2994 RMK AO2 T01460088=
KESN 250438Z AUTO 00000KT 10SM CLR 15/09 A2994 RMK AO2 T01510088=
KESN 250458Z AUTO 02003KT 10SM CLR 15/11 A2994 RMK AO2 T01490105=
KESN 250518Z AUTO 00000KT 10SM CLR 15/11 A2994 RMK AO2 T01490105=
KESN 250538Z AUTO 00000KT 10SM CLR 15/10 A2994 RMK AO2 T01520102=
KESN 250558Z AUTO 00000KT 10SM CLR 15/10 A2994 RMK AO2 T01490102 10200 20144
 402410144=
KESN 250618Z AUTO 00000KT 10SM CLR 15/11 A2993 RMK AO2 T01500105=
KESN 250638Z AUTO 00000KT 10SM CLR 15/10 A2993 RMK AO2 T01530100=
KESN 250658Z AUTO 00000KT 10SM CLR 15/10 A2992 RMK AO2 T01520102=
KESN 250718Z AUTO 00000KT 10SM CLR 15/10 A2992 RMK AO2 T01520104=
KESN 250738Z AUTO 00000KT 10SM SCT100 15/11 A2992 RMK AO2 T01480108=
KESN 250758Z AUTO 00000KT 10SM SCT100 SCT120 15/11 A2992 RMK AO2 T01470111=
KESN 250818Z AUTO 01003KT 10SM SCT090 SCT120 16/09 A2992 RMK AO2 T01550090=
KESN 250838Z AUTO 01003KT 10SM SCT090 15/09 A2992 RMK AO2 T01540091=
KESN 250858Z AUTO 00000KT 10SM CLR 15/09 A2993 RMK AO2 T01540091=
KESN 250918Z AUTO 00000KT 10SM CLR 16/09 A2993 RMK AO2 T01560093=
KESN 250938Z AUTO 00000KT 10SM SCT080 16/09 A2993 RMK AO2 T01560094=
KESN 250942Z AUTO 00000KT 10SM SCT080 15/10 A2993 RMK AO2 T01530100=
KESN 250950Z 00000KT 10SM BKN080 16/08 A2994=
KESN 251050Z 00000KT 10SM BKN080 16/09 A2996=
KESN 251150Z 02004KT 10SM BKN100 17/08 A2997=
KESN 251250Z 05003KT 10SM SCT100 OVC150 18/08 A2997=
KESN 251350Z 04005KT 10SM OVC150 18/08 A2996=
KESN 251446Z 06003KT 10SM OVC150 18/09 A2997=
KESN 251550Z 01004KT 10SM OVC150 18/11 A2997=
KESN 251655Z 05006KT 10SM BKN150 21/12 A2994=
KESN 251750Z 06006KT 10SM BKN150 22/11 A2993=